createdAt,value
2022-11-12T00:00:37.408Z,21.50
2022-11-12T00:05:37.359Z,20.90
2022-11-12T00:10:37.252Z,21.30
2022-11-12T00:15:37.259Z,21.10
2022-11-12T00:20:37.123Z,21.00
2022-11-12T00:25:37.067Z,21.20
2022-11-12T00:30:37.037Z,23.70
2022-11-12T00:35:36.913Z,21.80
2022-11-12T00:40:36.862Z,20.70
2022-11-12T00:45:36.807Z,21.80
2022-11-12T00:50:36.725Z,21.20
2022-11-12T00:55:36.661Z,20.50
2022-11-12T01:00:36.694Z,20.20
2022-11-12T01:05:36.557Z,20.90
2022-11-12T01:10:36.498Z,20.50
2022-11-12T01:15:36.414Z,20.60
2022-11-12T01:20:36.350Z,20.40
2022-11-12T01:25:36.295Z,20.50
2022-11-12T01:30:36.184Z,19.80
2022-11-12T01:35:36.140Z,19.40
2022-11-12T01:40:36.096Z,19.90
2022-11-12T01:45:36.036Z,19.60
2022-11-12T01:50:35.953Z,19.00
2022-11-12T01:55:35.895Z,18.90
2022-11-12T02:00:35.817Z,19.00
2022-11-12T02:05:35.854Z,18.60
2022-11-12T02:10:35.714Z,19.20
2022-11-12T02:15:35.610Z,18.50
2022-11-12T02:20:35.565Z,17.90
2022-11-12T02:25:35.492Z,18.50
2022-11-12T02:30:35.430Z,18.40
2022-11-12T02:35:35.363Z,17.90
2022-11-12T02:40:35.306Z,17.80
2022-11-12T02:45:35.320Z,17.90
2022-11-12T02:50:35.215Z,17.80
2022-11-12T02:55:35.101Z,17.60
2022-11-12T03:00:35.089Z,17.60
2022-11-12T03:05:34.978Z,17.10
2022-11-12T03:10:34.955Z,17.50
2022-11-12T03:15:34.848Z,18.30
2022-11-12T03:20:34.799Z,17.90
2022-11-12T03:25:34.709Z,17.40
2022-11-12T03:30:34.648Z,17.70
2022-11-12T03:35:34.596Z,18.10
2022-11-12T03:40:34.551Z,18.50
2022-11-12T03:45:34.454Z,17.20
2022-11-12T03:50:34.430Z,17.70
2022-11-12T03:55:34.346Z,17.70
2022-11-12T04:00:34.287Z,17.50
2022-11-12T04:05:34.241Z,18.10
2022-11-12T04:10:34.116Z,19.00
2022-11-12T04:15:34.087Z,17.90
2022-11-12T04:20:33.967Z,17.40
2022-11-12T04:25:33.943Z,17.10
2022-11-12T04:30:33.877Z,17.90
2022-11-12T04:35:33.823Z,17.30
2022-11-12T04:40:33.769Z,16.40
2022-11-12T04:45:33.668Z,16.50
2022-11-12T04:50:33.582Z,16.00
2022-11-12T04:55:33.528Z,15.30
2022-11-12T05:00:33.515Z,13.20
2022-11-12T05:05:34.254Z,13.00
2022-11-12T05:10:33.352Z,11.30
2022-11-12T05:15:33.283Z,13.50
2022-11-12T05:20:33.215Z,14.00
2022-11-12T05:25:33.138Z,16.00
2022-11-12T05:30:33.080Z,14.50
2022-11-12T05:35:33.037Z,15.30
2022-11-12T05:40:32.949Z,15.20
2022-11-12T05:45:32.933Z,15.70
2022-11-12T05:50:39.873Z,18.40
2022-11-12T05:55:37.012Z,15.90
2022-11-12T06:00:32.710Z,19.10
2022-11-12T06:05:32.629Z,18.90
2022-11-12T06:10:32.567Z,17.60
2022-11-12T06:15:37.983Z,17.00
2022-11-12T06:20:33.432Z,17.40
2022-11-12T06:25:32.344Z,18.00
2022-11-12T06:30:32.333Z,17.40
2022-11-12T06:35:32.222Z,17.30
2022-11-12T06:40:32.186Z,16.30
2022-11-12T06:45:32.096Z,14.90
2022-11-12T06:50:32.043Z,15.40
2022-11-12T06:55:31.995Z,15.40
2022-11-12T07:00:31.929Z,15.00
2022-11-12T07:05:31.849Z,15.40
2022-11-12T07:10:31.807Z,15.00
2022-11-12T07:15:31.760Z,15.20
2022-11-12T07:20:31.721Z,15.40
2022-11-12T07:25:31.577Z,15.60
2022-11-12T07:30:31.534Z,15.20
2022-11-12T07:35:31.491Z,14.50
2022-11-12T07:40:31.381Z,14.00
2022-11-12T07:45:31.370Z,13.50
2022-11-12T07:50:31.254Z,12.00
2022-11-12T07:55:31.197Z,12.00
2022-11-12T08:00:31.159Z,12.50
2022-11-12T08:05:31.101Z,12.80
2022-11-12T08:10:31.064Z,11.40
2022-11-12T08:15:30.964Z,11.20
2022-11-12T08:20:30.960Z,11.30
2022-11-12T08:25:30.788Z,11.50
2022-11-12T08:30:30.783Z,11.40
2022-11-12T08:35:30.735Z,12.10
2022-11-12T08:40:30.663Z,11.30
2022-11-12T08:45:30.606Z,11.30
2022-11-12T08:50:30.577Z,11.50
2022-11-12T08:55:30.491Z,10.80
2022-11-12T09:00:30.418Z,10.90
2022-11-12T09:05:30.361Z,9.60
2022-11-12T09:10:30.311Z,9.10
2022-11-12T09:15:37.479Z,8.60
2022-11-12T09:20:31.351Z,8.40
2022-11-12T09:25:30.055Z,7.90
2022-11-12T09:30:30.019Z,8.20
2022-11-12T09:35:29.871Z,7.50
2022-11-12T09:40:29.843Z,7.60
2022-11-12T09:45:29.838Z,7.20
2022-11-12T09:50:29.705Z,6.60
2022-11-12T09:55:29.685Z,7.00
2022-11-12T10:00:29.683Z,7.50
2022-11-12T10:05:29.669Z,7.00
2022-11-12T10:10:29.447Z,7.00
2022-11-12T10:15:29.359Z,6.70
2022-11-12T10:20:30.237Z,6.30
2022-11-12T10:25:29.234Z,6.50
2022-11-12T10:30:29.187Z,6.90
2022-11-12T10:35:29.083Z,6.60
2022-11-12T10:40:29.049Z,6.80
2022-11-12T10:45:28.967Z,6.60
2022-11-12T10:50:28.897Z,6.10
2022-11-12T10:55:28.804Z,6.30
2022-11-12T11:00:28.741Z,6.40
2022-11-12T11:05:28.675Z,6.60
2022-11-12T11:10:28.637Z,6.80
2022-11-12T11:15:28.602Z,6.50
2022-11-12T11:20:28.481Z,6.50
2022-11-12T11:25:28.465Z,6.50
2022-11-12T11:30:28.373Z,5.80
2022-11-12T11:35:28.283Z,6.20
2022-11-12T11:40:28.291Z,6.50
2022-11-12T11:45:28.175Z,6.60
2022-11-12T11:50:28.154Z,5.70
2022-11-12T11:55:28.036Z,6.10
2022-11-12T12:00:27.955Z,5.90
2022-11-12T12:05:27.882Z,5.40
2022-11-12T12:10:53.280Z,5.30
2022-11-12T12:15:28.745Z,5.60
2022-11-12T12:20:27.771Z,5.10
2022-11-12T12:25:27.632Z,5.00
2022-11-12T12:30:27.574Z,4.30
2022-11-12T12:35:27.535Z,4.20
2022-11-12T12:40:27.542Z,3.80
2022-11-12T12:45:29.617Z,3.50
2022-11-12T12:50:28.384Z,3.60
2022-11-12T12:55:27.240Z,5.40
2022-11-12T13:00:27.273Z,4.30
2022-11-12T13:05:27.126Z,4.20
2022-11-12T13:10:27.029Z,4.30
2022-11-12T13:15:26.974Z,4.10
2022-11-12T13:20:26.897Z,4.60
2022-11-12T13:25:26.830Z,4.70
2022-11-12T13:30:26.787Z,4.60
2022-11-12T13:35:26.711Z,5.00
2022-11-12T13:40:26.644Z,3.70
2022-11-12T13:45:26.574Z,4.30
2022-11-12T13:50:26.513Z,3.80
2022-11-12T13:55:26.430Z,4.50
2022-11-12T14:00:26.370Z,4.80
2022-11-12T14:05:26.316Z,5.50
2022-11-12T14:10:26.243Z,5.70
2022-11-12T14:15:26.185Z,4.90
2022-11-12T14:20:26.115Z,6.20
2022-11-12T14:25:26.037Z,6.20
2022-11-12T14:30:26.002Z,5.90
2022-11-12T14:35:25.998Z,5.70
2022-11-12T14:40:25.842Z,5.40
2022-11-12T14:45:25.793Z,4.70
2022-11-12T14:50:25.785Z,5.40
2022-11-12T14:55:25.652Z,4.80
2022-11-12T15:00:25.632Z,4.80
2022-11-12T15:05:25.549Z,5.00
2022-11-12T15:10:25.436Z,5.50
2022-11-12T15:15:25.404Z,4.70
2022-11-12T15:20:25.337Z,4.80
2022-11-12T15:25:25.292Z,5.00
2022-11-12T15:30:25.199Z,5.20
2022-11-12T15:35:25.158Z,4.80
2022-11-12T15:40:25.070Z,5.30
2022-11-12T15:45:25.339Z,5.50
2022-11-12T15:50:24.944Z,5.80
2022-11-12T15:55:24.876Z,6.20
2022-11-12T16:00:24.909Z,6.30
2022-11-12T16:05:24.745Z,6.10
2022-11-12T16:10:24.684Z,14.10
2022-11-12T16:15:24.634Z,11.30
2022-11-12T16:20:24.560Z,8.10
2022-11-12T16:25:24.467Z,11.90
2022-11-12T16:30:24.422Z,10.00
2022-11-12T16:35:24.580Z,18.10
2022-11-12T16:40:24.299Z,22.60
2022-11-12T16:45:24.194Z,17.90
2022-11-12T16:50:24.185Z,10.50
2022-11-12T16:55:24.085Z,10.00
2022-11-12T17:00:24.058Z,7.60
2022-11-12T17:05:23.957Z,7.50
2022-11-12T17:10:23.906Z,8.30
2022-11-12T17:15:23.835Z,9.40
2022-11-12T17:20:23.810Z,7.80
2022-11-12T17:25:23.689Z,10.30
2022-11-12T17:30:23.648Z,9.80
2022-11-12T17:35:23.617Z,12.50
2022-11-12T17:40:23.490Z,11.40
2022-11-12T17:45:23.431Z,13.10
2022-11-12T17:50:23.364Z,12.60
2022-11-12T17:55:23.322Z,12.90
2022-11-12T18:00:23.538Z,13.70
2022-11-12T18:05:23.159Z,13.90
2022-11-12T18:10:23.382Z,15.00
2022-11-12T18:15:23.067Z,14.60
2022-11-12T18:20:23.240Z,15.60
2022-11-12T18:25:22.909Z,16.10
2022-11-12T18:30:22.863Z,16.00
2022-11-12T18:35:28.570Z,19.40
2022-11-12T18:40:23.716Z,18.60
2022-11-12T18:45:22.642Z,17.50
2022-11-12T18:50:22.651Z,17.70
2022-11-12T18:55:22.529Z,16.90
2022-11-12T19:00:22.570Z,17.90
2022-11-12T19:05:22.449Z,17.40
2022-11-12T19:10:22.364Z,17.50
2022-11-12T19:15:26.559Z,17.70
2022-11-12T19:20:22.250Z,18.10
2022-11-12T19:25:23.111Z,18.50
2022-11-12T19:30:22.102Z,18.80
2022-11-12T19:35:22.040Z,21.00
2022-11-12T19:40:21.999Z,21.70
2022-11-12T19:45:22.042Z,22.20
2022-11-12T19:50:24.688Z,22.40
2022-11-12T19:55:21.752Z,23.10
2022-11-12T20:00:21.667Z,23.60
2022-11-12T20:05:22.367Z,23.20
2022-11-12T20:10:21.779Z,24.70
2022-11-12T20:15:21.464Z,22.60
2022-11-12T20:20:21.400Z,23.50
2022-11-12T20:25:21.364Z,24.70
2022-11-12T20:30:21.293Z,25.80
2022-11-12T20:35:22.479Z,27.20
2022-11-12T20:40:21.153Z,25.60
2022-11-12T20:45:21.072Z,27.20
2022-11-12T20:50:21.187Z,27.70
2022-11-12T20:55:22.007Z,28.20
2022-11-12T21:00:24.096Z,27.30
2022-11-12T21:05:20.809Z,27.40
2022-11-12T21:10:20.785Z,26.50
2022-11-12T21:15:20.702Z,27.00
2022-11-12T21:20:20.699Z,28.20
2022-11-12T21:25:20.539Z,27.80
2022-11-12T21:30:20.549Z,26.60
2022-11-12T21:35:20.506Z,28.10
2022-11-12T21:40:20.384Z,25.50
2022-11-12T21:45:20.313Z,24.50
2022-11-12T21:50:20.308Z,25.10
2022-11-12T21:55:20.186Z,26.30
2022-11-12T22:00:40.908Z,29.70
2022-11-12T22:05:21.075Z,28.40
2022-11-12T22:10:20.044Z,28.60
2022-11-12T22:15:24.183Z,25.80
2022-11-12T22:20:19.870Z,25.90
2022-11-12T22:25:19.819Z,26.30
2022-11-12T22:30:19.718Z,24.20
2022-11-12T22:35:19.653Z,25.60
2022-11-12T22:40:19.641Z,25.90
2022-11-12T22:45:19.594Z,25.20
2022-11-12T22:50:19.459Z,26.80
2022-11-12T22:55:19.424Z,25.20
2022-11-12T23:00:19.337Z,25.70
2022-11-12T23:05:19.319Z,24.90
2022-11-12T23:10:19.502Z,24.40
2022-11-12T23:15:19.177Z,21.90
2022-11-12T23:20:19.128Z,22.70
2022-11-12T23:25:19.032Z,23.30
2022-11-12T23:30:18.961Z,20.60
2022-11-12T23:35:18.917Z,20.40
2022-11-12T23:40:18.875Z,20.30
2022-11-12T23:45:19.557Z,19.60
2022-11-12T23:50:19.369Z,19.60
2022-11-12T23:55:18.678Z,19.70
